Anderson, South Carolina
Current Conditions -  °F | °C
As of 11:56 AM on Friday 31 Oct 2014 (Local Time) from KAND Reporting Station
Scattered Clouds Scattered Clouds  
Wind Chill: 14°   Ceiling: Unl
Heat Index: 14°   Visibility: 10mi
Dew Point:   Wind: 6mph
Humidity: 60%   Direction: 100°E
Pressure: 29.92"   Gusts: NA
Location:  34.5°N, 82.65°W
Report Text: KAND 311556Z AUTO 10005KT 10SM SCT065 14/07 A2992 RMK AO2 SLP130 T01440067
Loading
Personal Weather Stations






























Interactive Weather Map
Tropical Storm Tracking
New forecast layout! Learn more

10-Day Weather Forecast

Advertisements
Track Severe Weather on mobile